Time;durP1;ratioP1;P1;durP2;ratioP2;P2;SDS_P1;SDS_P2;PMS_P1;PMS_P2;Temp;Humidity;BMP_temperature;BMP_pressure;BME280_temperature;BME280_humidity;BME280_pressure;Samples;Min_cycle;Max_cycle;Signal;HPM_P1;HPM_P2
2021/06/06 00:01:15;;;;;;;21.05;14.68;;;16.80;84.60;;;;;;5101107;28;20138;-82
2021/06/06 00:03:52;;;;;;;24.27;16.40;;;16.80;84.50;;;;;;5106879;28;20020;-82
2021/06/06 00:06:38;;;;;;;23.35;16.52;;;16.80;84.40;;;;;;5093509;28;20514;-82
2021/06/06 00:09:08;;;;;;;22.08;15.60;;;16.70;84.50;;;;;;5093714;28;20031;-82
2021/06/06 00:11:37;;;;;;;24.23;16.08;;;16.70;85.50;;;;;;5110044;28;21972;-83
2021/06/06 00:14:05;;;;;;;22.98;15.50;;;16.70;84.90;;;;;;5113515;28;20384;-82
2021/06/06 00:16:38;;;;;;;21.73;16.33;;;16.70;84.80;;;;;;5111243;28;20030;-82
2021/06/06 00:19:05;;;;;;;20.42;15.75;;;16.70;84.60;;;;;;5111692;28;20038;-82
2021/06/06 00:21:32;;;;;;;22.20;16.80;;;16.70;84.60;;;;;;5093189;28;20110;-82
2021/06/06 00:23:58;;;;;;;23.38;16.33;;;16.70;84.10;;;;;;5094271;28;20088;-82
2021/06/06 00:26:24;;;;;;;21.73;16.00;;;16.60;84.00;;;;;;5109803;28;20028;-82
2021/06/06 00:28:51;;;;;;;25.67;17.10;;;16.60;84.40;;;;;;5084642;28;20032;-82
2021/06/06 00:31:17;;;;;;;21.63;15.25;;;16.60;84.60;;;;;;5098443;28;20026;-82
2021/06/06 00:33:42;;;;;;;20.23;15.73;;;16.50;84.40;;;;;;5112992;28;20107;-82
2021/06/06 00:36:09;;;;;;;21.48;16.23;;;16.50;84.40;;;;;;5093711;28;20126;-82
2021/06/06 00:38:36;;;;;;;22.45;14.70;;;16.50;84.70;;;;;;5087925;28;20499;-82
2021/06/06 00:41:03;;;;;;;23.02;16.67;;;16.50;84.80;;;;;;5104371;28;20438;-82
2021/06/06 00:43:30;;;;;;;21.58;15.15;;;16.50;84.40;;;;;;5074584;28;20020;-82
2021/06/06 00:45:55;;;;;;;23.30;16.30;;;16.50;84.30;;;;;;5106393;28;20063;-82
2021/06/06 00:48:21;;;;;;;19.45;14.68;;;16.50;84.30;;;;;;5093931;28;20047;-82
2021/06/06 00:50:50;;;;;;;24.60;15.80;;;16.50;84.50;;;;;;5091656;28;20073;-82
2021/06/06 00:53:38;;;;;;;19.77;15.57;;;16.40;84.60;;;;;;5110421;28;20036;-82
2021/06/06 00:56:08;;;;;;;24.33;15.65;;;16.40;84.80;;;;;;5097350;28;20028;-81
2021/06/06 00:58:34;;;;;;;19.45;14.45;;;16.40;84.80;;;;;;5092464;28;20052;-82
2021/06/06 01:01:00;;;;;;;25.52;15.32;;;16.40;84.80;;;;;;5079226;28;20176;-82
2021/06/06 01:03:28;;;;;;;19.38;15.52;;;16.50;84.70;;;;;;5110462;28;20111;-82
2021/06/06 01:06:06;;;;;;;22.67;15.95;;;16.40;84.60;;;;;;5113337;28;20080;-82
2021/06/06 01:08:33;;;;;;;22.38;17.23;;;16.40;84.60;;;;;;5099666;27;20024;-82
2021/06/06 01:11:28;;;;;;;23.00;15.82;;;16.40;84.70;;;;;;5096724;28;20473;-82
2021/06/06 01:14:12;;;;;;;23.70;16.95;;;16.30;85.10;;;;;;5097989;28;20164;-82
2021/06/06 01:16:42;;;;;;;20.85;15.35;;;16.30;85.20;;;;;;5115491;28;20031;-82
2021/06/06 01:19:15;;;;;;;24.52;16.98;;;16.30;85.40;;;;;;5097447;28;20027;-82
2021/06/06 01:21:47;;;;;;;18.92;15.48;;;16.30;85.70;;;;;;5116519;28;20032;-82
2021/06/06 01:24:35;;;;;;;25.52;17.17;;;16.30;85.80;;;;;;5115837;28;20019;-82
2021/06/06 01:27:13;;;;;;;21.92;15.57;;;16.20;86.00;;;;;;5108679;28;20019;-82
2021/06/06 01:30:00;;;;;;;23.63;17.37;;;16.30;86.20;;;;;;5115553;28;20077;-82
2021/06/06 01:32:37;;;;;;;21.67;15.93;;;16.20;86.10;;;;;;5114142;28;20019;-82
2021/06/06 01:35:32;;;;;;;24.63;15.55;;;16.20;86.40;;;;;;5097991;28;20020;-82
2021/06/06 01:38:03;;;;;;;25.15;16.52;;;16.20;86.40;;;;;;5083344;28;20115;-82
2021/06/06 01:40:33;;;;;;;26.20;17.55;;;16.20;86.60;;;;;;5097577;28;20726;-82
2021/06/06 01:43:04;;;;;;;22.63;16.67;;;16.30;86.60;;;;;;5109054;28;20035;-82
2021/06/06 01:45:37;;;;;;;21.35;15.00;;;16.20;86.70;;;;;;5113081;28;20081;-82
2021/06/06 01:48:09;;;;;;;21.45;14.75;;;16.20;86.70;;;;;;5115496;28;20099;-82
2021/06/06 01:50:45;;;;;;;25.17;17.02;;;16.20;86.70;;;;;;5113949;28;20065;-83
2021/06/06 01:53:13;;;;;;;25.73;16.73;;;16.20;86.60;;;;;;5114645;28;20510;-82
2021/06/06 01:55:45;;;;;;;23.98;16.83;;;16.20;86.60;;;;;;5092960;28;20066;-82
2021/06/06 01:58:12;;;;;;;18.65;14.65;;;16.20;86.70;;;;;;5079064;28;20028;-82
2021/06/06 02:00:53;;;;;;;22.05;16.30;;;16.10;86.80;;;;;;5110202;28;20028;-82
2021/06/06 02:03:19;;;;;;;22.67;16.90;;;16.10;87.00;;;;;;5096050;28;20039;-82
2021/06/06 02:05:45;;;;;;;27.90;17.95;;;16.10;87.00;;;;;;5107479;28;20047;-82
2021/06/06 02:08:15;;;;;;;21.88;15.80;;;16.10;87.10;;;;;;5106195;28;20428;-82
2021/06/06 02:10:45;;;;;;;22.88;15.32;;;16.10;87.20;;;;;;5093014;28;20016;-82
2021/06/06 02:13:17;;;;;;;25.48;16.85;;;16.20;87.30;;;;;;5109923;28;20476;-82
2021/06/06 02:15:45;;;;;;;30.10;19.80;;;16.20;87.30;;;;;;5081206;28;20031;-82
2021/06/06 02:18:11;;;;;;;25.45;16.75;;;16.20;87.40;;;;;;5077442;28;20028;-82
2021/06/06 02:20:43;;;;;;;24.02;17.92;;;16.10;87.30;;;;;;5091616;28;20081;-81
2021/06/06 02:23:09;;;;;;;28.70;19.33;;;16.10;87.50;;;;;;5095323;28;20054;-82
2021/06/06 02:25:37;;;;;;;30.23;21.02;;;16.10;87.50;;;;;;5113258;28;20431;-82
2021/06/06 02:28:21;;;;;;;28.98;20.85;;;16.20;87.70;;;;;;5096415;28;20072;-82
2021/06/06 02:31:00;;;;;;;29.40;20.90;;;16.10;87.80;;;;;;5115681;28;20039;-82
2021/06/06 02:33:44;;;;;;;32.60;23.55;;;16.10;87.90;;;;;;5097341;28;20028;-82
2021/06/06 02:36:13;;;;;;;31.08;22.27;;;16.10;87.80;;;;;;5114062;28;20081;-82
2021/06/06 02:38:51;;;;;;;30.83;22.92;;;16.10;87.70;;;;;;5108984;28;20102;-82
2021/06/06 02:41:28;;;;;;;34.67;22.47;;;16.10;87.70;;;;;;5112254;28;20113;-82
2021/06/06 02:44:14;;;;;;;36.15;24.85;;;16.20;87.70;;;;;;5110924;28;20032;-82
2021/06/06 02:46:43;;;;;;;33.50;22.58;;;16.20;87.70;;;;;;5100959;28;20024;-82
2021/06/06 02:49:27;;;;;;;42.20;26.92;;;16.10;87.70;;;;;;5108475;28;20026;-82
2021/06/06 02:52:21;;;;;;;31.02;22.90;;;16.10;87.90;;;;;;5105965;28;20040;-82
2021/06/06 02:54:53;;;;;;;35.17;25.38;;;16.10;88.10;;;;;;5106145;28;20491;-82
2021/06/06 02:57:20;;;;;;;33.80;23.60;;;16.10;87.80;;;;;;5092939;28;20472;-82
2021/06/06 02:59:51;;;;;;;40.47;26.90;;;16.10;87.70;;;;;;5113980;28;20035;-82
2021/06/06 03:02:24;;;;;;;40.60;25.90;;;16.10;87.60;;;;;;5110497;28;20046;-82
2021/06/06 03:04:54;;;;;;;42.38;28.02;;;16.10;87.80;;;;;;5095782;28;20032;-82
2021/06/06 03:07:31;;;;;;;35.50;25.95;;;16.10;87.70;;;;;;5112036;28;20008;-82
2021/06/06 03:09:57;;;;;;;43.83;27.95;;;16.10;87.80;;;;;;5096800;28;20089;-82
2021/06/06 03:12:25;;;;;;;37.95;26.48;;;16.10;87.80;;;;;;5076786;28;20490;-82
2021/06/06 03:14:51;;;;;;;40.90;28.23;;;16.10;87.90;;;;;;5111706;28;20034;-82
2021/06/06 03:17:25;;;;;;;41.13;29.55;;;16.10;87.70;;;;;;5112278;28;20020;-82
2021/06/06 03:19:54;;;;;;;39.03;27.42;;;16.10;87.90;;;;;;5092961;28;20062;-82
2021/06/06 03:22:25;;;;;;;40.30;26.75;;;16.10;87.90;;;;;;5109803;28;20060;-82
2021/06/06 03:24:56;;;;;;;39.08;26.10;;;16.10;87.90;;;;;;5093922;28;20016;-82
2021/06/06 03:27:25;;;;;;;37.65;27.02;;;16.10;88.00;;;;;;5076619;28;20031;-82
2021/06/06 03:30:11;;;;;;;40.30;29.73;;;16.10;87.90;;;;;;5112047;28;20035;-82
2021/06/06 03:32:40;;;;;;;41.13;27.10;;;16.10;87.90;;;;;;5104646;28;20116;-82
2021/06/06 03:35:07;;;;;;;;;;;16.00;87.90;;;;;;5101441;28;20020;-82
2021/06/06 03:37:32;;;;;;;39.92;25.63;;;16.10;87.80;;;;;;5110812;28;19908;-82
2021/06/06 03:39:59;;;;;;;38.17;27.02;;;16.00;88.20;;;;;;5095793;28;20034;-82
2021/06/06 03:42:26;;;;;;;46.25;30.50;;;16.00;88.20;;;;;;5092582;28;20480;-82
2021/06/06 03:44:52;;;;;;;43.15;29.02;;;16.10;88.40;;;;;;5095448;28;20504;-82
2021/06/06 03:47:17;;;;;;;42.05;28.08;;;16.00;88.30;;;;;;5112343;28;20058;-82
2021/06/06 03:49:43;;;;;;;44.80;28.00;;;16.10;88.30;;;;;;5109377;28;20392;-82
2021/06/06 03:52:09;;;;;;;43.17;29.27;;;16.10;88.30;;;;;;5110554;28;20035;-82
2021/06/06 03:54:35;;;;;;;43.55;28.92;;;16.00;88.30;;;;;;5107640;28;20503;-82
2021/06/06 03:57:01;;;;;;;45.65;31.00;;;16.10;88.30;;;;;;5110497;28;20416;-82
2021/06/06 03:59:26;;;;;;;46.28;30.55;;;16.00;88.40;;;;;;5078077;28;20024;-82
2021/06/06 04:01:52;;;;;;;43.53;29.15;;;16.00;88.50;;;;;;5076624;28;20062;-82
2021/06/06 04:04:19;;;;;;;44.10;29.10;;;16.00;88.60;;;;;;5076421;28;20028;-82
2021/06/06 04:06:45;;;;;;;46.60;29.05;;;16.00;88.70;;;;;;5110791;28;20076;-82
2021/06/06 04:09:11;;;;;;;52.72;28.85;;;15.90;89.40;;;;;;5093498;28;20496;-82
2021/06/06 04:11:38;;;;;;;45.97;27.63;;;15.90;89.10;;;;;;5087891;28;20107;-82
2021/06/06 04:14:05;;;;;;;44.42;27.67;;;15.90;89.30;;;;;;5114042;28;20128;-82
2021/06/06 04:16:31;;;;;;;50.78;30.48;;;15.90;89.20;;;;;;5114379;28;20092;-82
2021/06/06 04:18:56;;;;;;;47.65;29.35;;;15.90;89.90;;;;;;5095221;28;20035;-82
2021/06/06 04:21:26;;;;;;;43.65;27.42;;;15.90;89.30;;;;;;5094723;28;20519;-82
2021/06/06 04:23:52;;;;;;;49.53;31.40;;;16.00;89.20;;;;;;5093265;28;20077;-82
2021/06/06 04:26:19;;;;;;;44.22;29.13;;;16.10;89.10;;;;;;5087134;28;20032;-82
2021/06/06 04:28:45;;;;;;;41.35;27.25;;;16.10;88.90;;;;;;5083242;28;20541;-82
2021/06/06 04:31:11;;;;;;;52.97;29.98;;;16.10;88.80;;;;;;5092310;28;20028;-82
2021/06/06 04:33:38;;;;;;;46.13;29.25;;;16.10;89.00;;;;;;5100059;28;20015;-82
2021/06/06 04:36:04;;;;;;;49.47;32.67;;;16.10;88.70;;;;;;5095709;28;20032;-82
2021/06/06 04:38:31;;;;;;;44.08;27.98;;;16.10;88.70;;;;;;5103108;28;20035;-82
2021/06/06 04:40:59;;;;;;;47.65;30.08;;;16.00;88.80;;;;;;5092945;28;20036;-82
2021/06/06 04:43:25;;;;;;;40.10;27.58;;;16.00;89.00;;;;;;5092217;28;20030;-82
2021/06/06 04:45:51;;;;;;;44.20;27.40;;;15.90;89.00;;;;;;5077943;28;20043;-82
2021/06/06 04:48:32;;;;;;;48.53;30.50;;;15.90;89.10;;;;;;5108840;28;20015;-82
2021/06/06 04:51:01;;;;;;;43.45;27.75;;;15.90;89.00;;;;;;5101070;28;20077;-82
2021/06/06 04:53:28;;;;;;;41.83;26.25;;;15.90;89.20;;;;;;5092082;28;20024;-82
2021/06/06 04:55:56;;;;;;;34.65;24.60;;;15.90;89.30;;;;;;5072944;28;20028;-82
2021/06/06 04:58:24;;;;;;;36.13;25.13;;;15.80;89.30;;;;;;5089328;28;20408;-82
2021/06/06 05:00:50;;;;;;;35.13;23.73;;;15.90;89.30;;;;;;5090118;28;20039;-82
2021/06/06 05:03:18;;;;;;;33.88;22.40;;;15.90;89.00;;;;;;5087879;28;20031;-82
2021/06/06 05:05:44;;;;;;;29.60;20.80;;;15.90;88.80;;;;;;5074962;28;20028;-82
2021/06/06 05:08:11;;;;;;;26.60;19.85;;;15.90;88.70;;;;;;5087576;28;20040;-82
2021/06/06 05:10:40;;;;;;;28.83;20.27;;;15.90;88.50;;;;;;5113122;28;20081;-82
2021/06/06 05:13:07;;;;;;;27.55;19.65;;;15.80;88.40;;;;;;5092845;28;20027;-82
2021/06/06 05:15:33;;;;;;;31.08;19.95;;;15.90;88.40;;;;;;5078782;28;20044;-82
2021/06/06 05:17:59;;;;;;;28.30;19.60;;;15.80;88.10;;;;;;5096365;28;20102;-82
2021/06/06 05:20:32;;;;;;;26.20;19.80;;;15.80;88.00;;;;;;5093337;28;20104;-82
2021/06/06 05:22:58;;;;;;;29.67;19.58;;;15.80;88.00;;;;;;5104157;28;20028;-82
2021/06/06 05:25:24;;;;;;;29.83;19.35;;;15.80;88.00;;;;;;5112225;28;20433;-81
2021/06/06 05:27:50;;;;;;;32.58;21.30;;;15.80;88.10;;;;;;5113224;28;20024;-81
2021/06/06 05:30:21;;;;;;;27.05;20.05;;;15.80;87.80;;;;;;5113237;28;20415;-81
2021/06/06 05:32:51;;;;;;;30.75;20.55;;;15.80;87.80;;;;;;5094689;28;20841;-81
2021/06/06 05:35:18;;;;;;;24.25;19.17;;;15.80;87.80;;;;;;5113058;28;20024;-81
2021/06/06 05:37:43;;;;;;;28.42;20.52;;;15.80;88.00;;;;;;5112905;28;20035;-81
2021/06/06 05:40:10;;;;;;;31.10;21.70;;;15.80;88.00;;;;;;5066980;28;20086;-81
2021/06/06 05:42:35;;;;;;;31.10;21.80;;;15.80;87.80;;;;;;5074797;28;20074;-81
2021/06/06 05:45:01;;;;;;;30.38;22.67;;;15.90;87.80;;;;;;5112337;28;20116;-82
2021/06/06 05:47:27;;;;;;;30.02;21.45;;;15.90;87.80;;;;;;5103155;28;20769;-81
2021/06/06 05:49:52;;;;;;;31.67;23.40;;;15.90;87.80;;;;;;5064854;28;20388;-81
2021/06/06 05:52:18;;;;;;;30.40;22.30;;;15.90;87.90;;;;;;5110152;28;20113;-82
2021/06/06 05:54:44;;;;;;;36.90;24.42;;;15.90;87.90;;;;;;5092970;28;20204;-81
2021/06/06 05:57:09;;;;;;;30.23;21.70;;;15.90;87.80;;;;;;5081293;28;20122;-81
2021/06/06 05:59:35;;;;;;;35.58;23.95;;;15.90;87.90;;;;;;5112512;28;20407;-82
2021/06/06 06:02:01;;;;;;;32.38;21.52;;;15.90;87.80;;;;;;5096269;28;20052;-81
2021/06/06 06:04:27;;;;;;;38.88;25.58;;;15.90;88.00;;;;;;5095397;28;20035;-81
2021/06/06 06:06:52;;;;;;;35.85;25.60;;;15.90;88.00;;;;;;5083933;28;20445;-81
2021/06/06 06:09:18;;;;;;;30.33;23.63;;;15.90;87.80;;;;;;5078094;28;20103;-81
2021/06/06 06:11:43;;;;;;;32.67;23.45;;;15.80;87.50;;;;;;5089664;28;20028;-81
2021/06/06 06:14:09;;;;;;;31.88;23.30;;;15.80;88.20;;;;;;5089336;28;20473;-81
2021/06/06 06:16:37;;;;;;;32.05;22.30;;;15.80;87.50;;;;;;5090717;28;20028;-81
2021/06/06 06:19:04;;;;;;;29.98;23.10;;;15.80;87.50;;;;;;5111243;28;20039;-81
2021/06/06 06:21:32;;;;;;;36.33;22.80;;;15.80;87.30;;;;;;5075199;28;20460;-81
2021/06/06 06:23:58;;;;;;;29.02;22.20;;;15.80;87.20;;;;;;5102456;28;20028;-81
2021/06/06 06:26:24;;;;;;;29.75;22.25;;;15.80;87.30;;;;;;5110488;28;20024;-81
2021/06/06 06:28:50;;;;;;;38.20;26.20;;;15.80;87.30;;;;;;5086516;28;20054;-81
2021/06/06 06:31:16;;;;;;;35.75;24.55;;;15.80;87.10;;;;;;5076354;28;20042;-81
2021/06/06 06:33:43;;;;;;;33.63;22.05;;;15.80;87.70;;;;;;5109814;28;20012;-81
2021/06/06 06:36:14;;;;;;;36.30;22.45;;;15.80;87.10;;;;;;5109407;28;20069;-81
2021/06/06 06:38:39;;;;;;;34.45;22.95;;;15.90;87.10;;;;;;5103141;28;20031;-81
2021/06/06 06:41:06;;;;;;;29.35;21.23;;;15.90;86.90;;;;;;5095657;28;20027;-81
2021/06/06 06:43:31;;;;;;;36.53;22.85;;;15.90;87.00;;;;;;5098821;28;20024;-81
2021/06/06 06:45:57;;;;;;;34.75;23.80;;;15.90;86.70;;;;;;5102841;28;20040;-81
2021/06/06 06:48:26;;;;;;;33.08;22.80;;;16.00;86.70;;;;;;5088748;28;20020;-82
2021/06/06 06:50:53;;;;;;;35.83;22.13;;;16.00;86.70;;;;;;5107982;28;20020;-81
2021/06/06 06:53:19;;;;;;;33.95;21.58;;;16.00;86.70;;;;;;5086264;28;20038;-81
2021/06/06 06:55:46;;;;;;;34.75;24.80;;;16.10;86.70;;;;;;5104210;28;20048;-81
2021/06/06 06:58:12;;;;;;;33.15;24.17;;;16.10;86.40;;;;;;5077290;28;20028;-81
2021/06/06 07:00:44;;;;;;;32.97;23.15;;;16.00;86.50;;;;;;5098386;28;20028;-81
2021/06/06 07:03:12;;;;;;;31.88;22.70;;;16.00;86.60;;;;;;5080054;28;20441;-81
2021/06/06 07:05:39;;;;;;;36.45;22.92;;;16.00;86.80;;;;;;5099814;28;20077;-81
2021/06/06 07:08:07;;;;;;;32.05;21.98;;;16.00;86.70;;;;;;5097484;28;20024;-81
2021/06/06 07:10:36;;;;;;;35.17;23.85;;;16.00;86.80;;;;;;5113854;28;20034;-81
2021/06/06 07:13:02;;;;;;;34.85;24.05;;;16.10;86.90;;;;;;5094986;28;20051;-81
2021/06/06 07:15:28;;;;;;;31.58;22.77;;;16.10;86.80;;;;;;5094728;28;20058;-80
2021/06/06 07:17:53;;;;;;;34.00;23.65;;;16.10;87.00;;;;;;5095626;28;20536;-81
2021/06/06 07:20:23;;;;;;;34.10;22.20;;;16.10;86.80;;;;;;5095413;28;20039;-81
2021/06/06 07:22:48;;;;;;;32.13;21.98;;;16.20;87.00;;;;;;5104344;28;20491;-81
2021/06/06 07:25:16;;;;;;;35.33;22.55;;;16.20;86.90;;;;;;5092342;28;20074;-81
2021/06/06 07:27:47;;;;;;;35.80;22.52;;;16.20;86.50;;;;;;5102651;28;20020;-81
2021/06/06 07:30:22;;;;;;;38.10;24.88;;;16.30;86.50;;;;;;5075159;28;20149;-81
2021/06/06 07:32:47;;;;;;;33.08;21.92;;;16.30;86.50;;;;;;5088497;28;20387;-81
2021/06/06 07:35:13;;;;;;;29.65;21.17;;;16.30;86.50;;;;;;5095910;28;20081;-82
2021/06/06 07:37:39;;;;;;;33.08;23.90;;;16.30;86.50;;;;;;5088668;28;20031;-81
2021/06/06 07:40:07;;;;;;;30.52;21.85;;;16.40;86.50;;;;;;5114781;28;20031;-82
2021/06/06 07:42:34;;;;;;;33.97;23.92;;;16.40;86.30;;;;;;5113070;28;20024;-82
2021/06/06 07:45:01;;;;;;;34.90;23.55;;;16.40;86.20;;;;;;5099971;28;20492;-82
2021/06/06 07:47:26;;;;;;;35.97;23.45;;;16.40;86.20;;;;;;5094277;28;20024;-81
2021/06/06 07:56:07;;;;;;;38.63;24.25;;;16.30;86.50;;;;;;5076143;28;20111;-83
2021/06/06 07:58:36;;;;;;;37.45;23.08;;;16.40;86.60;;;;;;5094060;28;20107;-83
2021/06/06 08:01:04;;;;;;;35.38;23.10;;;16.40;87.30;;;;;;5075881;28;20021;-83
2021/06/06 08:03:30;;;;;;;37.45;25.35;;;16.40;86.70;;;;;;5093778;28;20386;-83
2021/06/06 08:05:57;;;;;;;36.22;23.48;;;16.40;86.60;;;;;;5105063;28;20073;-83
2021/06/06 08:08:24;;;;;;;31.35;20.80;;;16.40;86.40;;;;;;5109165;28;20030;-81
2021/06/06 08:10:54;;;;;;;35.03;23.52;;;16.50;86.50;;;;;;5076152;28;20099;-82
2021/06/06 08:13:21;;;;;;;33.58;22.15;;;16.50;86.40;;;;;;5093675;28;20035;-82
2021/06/06 08:15:47;;;;;;;32.03;22.85;;;16.60;86.40;;;;;;5105509;28;20040;-83
2021/06/06 08:18:17;;;;;;;33.72;23.25;;;16.60;86.20;;;;;;5075723;28;20044;-82
2021/06/06 08:20:50;;;;;;;33.20;22.60;;;16.70;86.20;;;;;;5094749;28;20032;-82
2021/06/06 08:23:17;;;;;;;32.20;21.80;;;16.70;85.80;;;;;;5113208;28;20027;-83
2021/06/06 08:25:43;;;;;;;30.80;21.38;;;16.70;85.70;;;;;;5098014;28;20036;-83
2021/06/06 08:28:11;;;;;;;32.05;22.17;;;16.70;85.70;;;;;;5092566;28;20108;-83
2021/06/06 08:30:45;;;;;;;32.83;21.52;;;16.80;85.90;;;;;;5093113;28;20028;-83
2021/06/06 08:33:12;;;;;;;34.58;23.33;;;16.80;85.90;;;;;;5092473;28;20115;-82
2021/06/06 08:35:38;;;;;;;37.55;23.00;;;16.80;85.50;;;;;;5066631;28;20032;-82
2021/06/06 08:38:05;;;;;;;30.98;20.73;;;16.80;85.60;;;;;;5113078;28;20030;-82
2021/06/06 08:40:53;;;;;;;32.95;23.30;;;16.90;85.60;;;;;;5100116;28;20032;-82
2021/06/06 08:43:22;;;;;;;29.95;20.58;;;16.90;85.90;;;;;;5094902;28;20024;-81
2021/06/06 08:45:53;;;;;;;36.53;22.70;;;16.90;85.80;;;;;;5083137;28;20032;-82
2021/06/06 08:48:21;;;;;;;35.25;23.08;;;17.00;85.90;;;;;;5095203;28;20028;-82
2021/06/06 08:50:51;;;;;;;30.65;21.35;;;17.00;85.50;;;;;;5103318;28;20055;-83
2021/06/06 08:53:31;;;;;;;30.88;21.77;;;17.10;85.40;;;;;;5074672;28;20024;-82
2021/06/06 08:56:00;;;;;;;36.30;24.13;;;17.10;84.90;;;;;;5093127;28;20118;-82
2021/06/06 08:58:45;;;;;;;31.98;21.05;;;17.20;84.70;;;;;;5101156;28;20027;-81
2021/06/06 09:01:27;;;;;;;35.83;23.30;;;17.20;84.60;;;;;;5095125;28;20034;-83
2021/06/06 09:03:57;;;;;;;33.00;22.83;;;17.30;84.60;;;;;;5094629;28;20047;-82
2021/06/06 09:06:43;;;;;;;28.48;21.42;;;17.30;84.60;;;;;;5095137;28;20023;-83
2021/06/06 09:09:11;;;;;;;29.10;21.60;;;17.30;84.40;;;;;;5113696;28;20042;-84
2021/06/06 09:11:37;;;;;;;33.97;23.42;;;17.40;84.20;;;;;;5095288;28;20028;-83
2021/06/06 09:14:04;;;;;;;37.33;23.40;;;17.40;84.10;;;;;;5078608;28;20488;-82
2021/06/06 09:16:34;;;;;;;28.40;22.08;;;17.40;83.90;;;;;;5113458;28;20361;-83
2021/06/06 09:19:12;;;;;;;32.20;21.80;;;17.40;83.70;;;;;;5113513;28;20023;-81
2021/06/06 09:22:07;;;;;;;31.33;21.90;;;17.50;83.40;;;;;;5113255;28;20053;-82
2021/06/06 09:24:47;;;;;;;26.55;19.60;;;17.70;83.40;;;;;;5064840;28;20480;-84
2021/06/06 09:27:21;;;;;;;32.03;21.23;;;17.60;83.20;;;;;;5061490;28;20070;-82
2021/06/06 09:30:07;;;;;;;33.03;21.08;;;17.70;82.80;;;;;;5105046;28;20048;-81
2021/06/06 09:32:34;;;;;;;29.88;20.08;;;17.70;83.30;;;;;;5089126;28;20040;-83
2021/06/06 09:35:24;;;;;;;30.05;21.58;;;17.70;82.60;;;;;;5115711;28;20016;-83
2021/06/06 09:38:24;;;;;;;27.85;19.83;;;17.70;82.50;;;;;;5099125;28;20388;-83
2021/06/06 09:40:51;;;;;;;28.60;20.33;;;17.80;82.80;;;;;;5098892;28;20024;-83
2021/06/06 09:43:28;;;;;;;30.42;21.25;;;17.70;82.50;;;;;;5116811;28;20027;-83
2021/06/06 09:46:09;;;;;;;26.33;18.00;;;17.80;83.10;;;;;;5111442;28;20100;-82
2021/06/06 09:48:40;;;;;;;25.30;19.17;;;17.80;82.30;;;;;;5099012;28;20031;-83
2021/06/06 09:51:21;;;;;;;30.65;19.90;;;17.80;82.00;;;;;;5093557;28;20028;-84
2021/06/06 09:53:47;;;;;;;26.10;18.20;;;17.90;81.80;;;;;;5102187;28;20024;-83
2021/06/06 09:56:19;;;;;;;28.10;18.73;;;17.80;82.00;;;;;;5080342;28;20028;-83
2021/06/06 09:58:44;;;;;;;28.52;19.52;;;17.90;82.40;;;;;;5115478;28;20016;-82
2021/06/06 10:01:29;;;;;;;26.42;18.40;;;17.90;82.40;;;;;;5064330;28;20433;-83
2021/06/06 10:03:58;;;;;;;27.23;18.77;;;18.00;81.80;;;;;;5089633;28;20400;-83
2021/06/06 10:06:26;;;;;;;32.17;19.15;;;18.00;82.00;;;;;;5101586;28;20396;-82
2021/06/06 10:09:13;;;;;;;27.52;19.60;;;18.00;82.00;;;;;;5103569;28;20477;-82
2021/06/06 10:12:02;;;;;;;26.85;18.95;;;18.00;82.20;;;;;;5101479;28;20036;-82
2021/06/06 10:14:33;;;;;;;;;;;18.00;82.80;;;;;;5115024;28;20056;-82
2021/06/06 10:17:03;;;;;;;24.92;18.63;;;18.00;81.90;;;;;;5095938;28;19904;-83
2021/06/06 10:19:34;;;;;;;27.98;18.30;;;18.00;82.20;;;;;;5086633;28;20026;-82
2021/06/06 10:22:05;;;;;;;24.55;17.83;;;18.10;82.70;;;;;;5077628;28;20055;-82
2021/06/06 10:24:43;;;;;;;31.60;19.35;;;18.10;82.00;;;;;;5095750;28;20024;-83
2021/06/06 10:27:17;;;;;;;22.13;17.65;;;18.20;81.60;;;;;;5101079;28;20047;-82
2021/06/06 10:29:54;;;;;;;21.60;17.20;;;18.30;81.90;;;;;;5097979;28;20028;-82
2021/06/06 10:32:22;;;;;;;26.08;17.25;;;18.30;81.30;;;;;;5077216;28;20024;-83
2021/06/06 10:35:05;;;;;;;20.25;15.75;;;18.40;81.10;;;;;;5093095;28;20462;-82
2021/06/06 10:37:31;;;;;;;23.25;17.83;;;18.40;80.70;;;;;;5096230;28;20032;-82
2021/06/06 10:40:00;;;;;;;26.65;19.30;;;18.50;80.80;;;;;;5097298;28;20027;-82
2021/06/06 10:42:33;;;;;;;;;;;18.50;80.50;;;;;;5100972;28;20063;-82
2021/06/06 10:45:21;;;;;;;25.92;18.20;;;18.40;80.30;;;;;;5110205;28;19911;-83
2021/06/06 10:48:01;;;;;;;23.15;16.95;;;18.40;81.60;;;;;;5090871;28;20361;-82
2021/06/06 10:50:40;;;;;;;24.48;17.48;;;18.40;81.10;;;;;;5115696;28;20031;-83
2021/06/06 10:53:28;;;;;;;23.45;17.23;;;18.50;81.00;;;;;;5085452;28;20031;-82
2021/06/06 10:56:13;;;;;;;25.55;18.02;;;18.60;80.90;;;;;;5096048;28;20032;-82
2021/06/06 10:58:57;;;;;;;20.10;17.63;;;18.60;80.20;;;;;;5101449;28;20038;-82
2021/06/06 11:01:43;;;;;;;20.98;16.60;;;18.70;80.60;;;;;;5113849;28;20456;-82
2021/06/06 11:04:13;;;;;;;18.70;15.80;;;18.60;80.50;;;;;;5066528;28;20067;-81
2021/06/06 11:06:42;;;;;;;21.70;17.17;;;18.70;79.80;;;;;;5069865;28;20036;-81
2021/06/06 11:09:25;;;;;;;19.05;16.38;;;18.70;80.20;;;;;;5070528;28;20028;-81
2021/06/06 11:11:57;;;;;;;17.80;14.45;;;18.80;79.80;;;;;;5069848;28;20493;-81
2021/06/06 11:14:36;;;;;;;17.20;15.32;;;18.80;79.40;;;;;;5070220;28;20389;-81
2021/06/06 11:17:11;;;;;;;17.58;14.82;;;18.90;79.00;;;;;;5070084;28;20104;-81
2021/06/06 11:19:37;;;;;;;20.80;16.52;;;19.00;79.20;;;;;;5070238;28;20029;-81
2021/06/06 11:22:04;;;;;;;19.30;16.30;;;19.10;79.00;;;;;;5069816;28;20097;-81
2021/06/06 11:24:39;;;;;;;20.42;16.42;;;19.10;78.10;;;;;;5068873;28;20029;-81
2021/06/06 11:27:11;;;;;;;18.80;15.57;;;19.10;77.90;;;;;;5072635;28;20024;-81
2021/06/06 11:29:57;;;;;;;19.48;14.63;;;19.10;78.30;;;;;;5071835;28;20032;-78
2021/06/06 11:32:28;;;;;;;16.50;13.70;;;19.10;78.50;;;;;;5070634;28;20021;-79
2021/06/06 11:35:21;;;;;;;18.77;13.93;;;19.10;78.30;;;;;;5074336;28;20025;-79
2021/06/06 11:37:55;;;;;;;18.10;13.77;;;19.20;78.30;;;;;;5073908;28;20558;-79
2021/06/06 11:40:43;;;;;;;17.45;15.57;;;19.30;78.90;;;;;;5074272;28;20137;-79
2021/06/06 11:43:26;;;;;;;18.07;14.87;;;19.30;77.60;;;;;;5073390;28;20082;-79
2021/06/06 11:45:53;;;;;;;19.88;15.82;;;19.30;77.40;;;;;;5068914;28;20111;-79
2021/06/06 11:48:33;;;;;;;15.52;13.52;;;19.40;77.20;;;;;;5078578;28;20465;-78
2021/06/06 11:51:00;;;;;;;16.50;13.10;;;19.50;77.10;;;;;;5078266;28;20614;-79
2021/06/06 11:53:36;;;;;;;18.30;14.30;;;19.60;76.90;;;;;;5076938;28;20067;-77
2021/06/06 11:56:28;;;;;;;20.23;15.93;;;19.70;76.60;;;;;;5073816;28;20028;-83
2021/06/06 11:59:08;;;;;;;18.08;14.10;;;19.90;76.50;;;;;;5073252;28;20024;-83
2021/06/06 12:01:46;;;;;;;16.83;14.73;;;20.10;76.20;;;;;;5071734;28;20035;-78
2021/06/06 12:04:12;;;;;;;18.65;15.73;;;20.30;76.20;;;;;;5111832;28;20035;-78
2021/06/06 12:06:39;;;;;;;18.70;14.63;;;20.40;74.90;;;;;;5112123;28;20531;-78
2021/06/06 12:09:14;;;;;;;20.45;16.17;;;20.50;74.50;;;;;;5105852;28;20095;-77
2021/06/06 12:11:41;;;;;;;18.55;16.10;;;20.60;73.90;;;;;;5093813;28;20372;-77
2021/06/06 12:14:25;;;;;;;18.63;15.73;;;20.70;73.60;;;;;;5093824;28;20027;-77
2021/06/06 12:17:04;;;;;;;15.38;13.30;;;20.70;73.40;;;;;;5109935;28;20379;-77
2021/06/06 12:19:48;;;;;;;21.48;16.27;;;20.70;73.40;;;;;;5109105;28;20487;-77
2021/06/06 12:22:23;;;;;;;15.15;13.18;;;20.80;72.90;;;;;;5111886;28;20038;-77
2021/06/06 12:25:11;;;;;;;16.55;14.75;;;20.90;73.80;;;;;;5097839;28;20389;-77
2021/06/06 12:27:42;;;;;;;16.27;13.27;;;21.10;72.50;;;;;;5092652;28;20032;-79
2021/06/06 12:30:17;;;;;;;16.73;14.30;;;21.20;72.20;;;;;;5113434;28;20036;-78
2021/06/06 12:32:53;;;;;;;16.90;14.30;;;21.30;71.30;;;;;;5107173;28;20024;-77
2021/06/06 12:35:22;;;;;;;16.02;14.25;;;21.20;70.80;;;;;;5099276;28;20028;-77
2021/06/06 12:37:52;;;;;;;16.13;13.13;;;21.10;71.20;;;;;;5094595;28;20082;-77
2021/06/06 12:40:22;;;;;;;16.52;14.73;;;21.00;71.50;;;;;;5092053;28;20024;-77
2021/06/06 12:42:55;;;;;;;13.77;12.38;;;20.90;71.90;;;;;;5092913;28;20357;-77
2021/06/06 12:45:21;;;;;;;14.68;13.02;;;20.90;72.40;;;;;;5078564;28;20020;-77
2021/06/06 12:47:48;;;;;;;14.55;13.00;;;20.80;72.90;;;;;;5086546;28;20031;-77
2021/06/06 12:50:14;;;;;;;16.60;14.18;;;20.70;73.00;;;;;;5083600;28;20038;-77
2021/06/06 12:52:54;;;;;;;16.75;14.40;;;20.70;73.10;;;;;;5087020;28;20020;-76
2021/06/06 12:55:30;;;;;;;16.67;13.85;;;20.70;73.10;;;;;;5105772;28;20030;-76